sensor_id;sensor_type;location;lat;lon;timestamp;P1;durP1;ratioP1;P2;durP2;ratioP2
70067;SDS011;57425;51.616;6.680;2022-11-15T00:01:48;13.93;;;6.37;;
70067;SDS011;57425;51.616;6.680;2022-11-15T00:04:15;22.60;;;6.63;;
70067;SDS011;57425;51.616;6.680;2022-11-15T00:06:41;11.67;;;6.00;;
70067;SDS011;57425;51.616;6.680;2022-11-15T00:09:06;10.83;;;4.93;;
70067;SDS011;57425;51.616;6.680;2022-11-15T00:11:32;13.40;;;7.03;;
70067;SDS011;57425;51.616;6.680;2022-11-15T00:13:57;11.23;;;5.27;;
70067;SDS011;57425;51.616;6.680;2022-11-15T00:16:23;19.70;;;6.97;;
70067;SDS011;57425;51.616;6.680;2022-11-15T00:18:49;12.90;;;6.07;;
70067;SDS011;57425;51.616;6.680;2022-11-15T00:21:16;11.87;;;5.83;;
70067;SDS011;57425;51.616;6.680;2022-11-15T00:23:42;17.37;;;5.90;;
70067;SDS011;57425;51.616;6.680;2022-11-15T00:26:11;14.57;;;6.43;;
70067;SDS011;57425;51.616;6.680;2022-11-15T00:28:38;11.03;;;5.57;;
70067;SDS011;57425;51.616;6.680;2022-11-15T00:31:04;13.60;;;6.33;;
70067;SDS011;57425;51.616;6.680;2022-11-15T00:33:31;16.13;;;5.90;;
70067;SDS011;57425;51.616;6.680;2022-11-15T00:36:04;12.77;;;6.50;;
70067;SDS011;57425;51.616;6.680;2022-11-15T00:38:32;13.37;;;6.43;;
70067;SDS011;57425;51.616;6.680;2022-11-15T00:40:59;12.70;;;5.83;;
70067;SDS011;57425;51.616;6.680;2022-11-15T00:43:25;10.70;;;5.60;;
70067;SDS011;57425;51.616;6.680;2022-11-15T00:45:51;20.03;;;6.03;;
70067;SDS011;57425;51.616;6.680;2022-11-15T00:48:17;17.27;;;6.63;;
70067;SDS011;57425;51.616;6.680;2022-11-15T00:50:42;12.87;;;5.63;;
70067;SDS011;57425;51.616;6.680;2022-11-15T00:53:08;13.83;;;5.90;;
70067;SDS011;57425;51.616;6.680;2022-11-15T00:55:34;13.33;;;6.17;;
70067;SDS011;57425;51.616;6.680;2022-11-15T00:57:59;13.70;;;5.97;;
70067;SDS011;57425;51.616;6.680;2022-11-15T01:00:25;15.33;;;6.13;;
70067;SDS011;57425;51.616;6.680;2022-11-15T01:02:51;18.33;;;5.93;;
70067;SDS011;57425;51.616;6.680;2022-11-15T01:05:16;17.20;;;5.90;;
70067;SDS011;57425;51.616;6.680;2022-11-15T01:07:42;11.53;;;5.37;;
70067;SDS011;57425;51.616;6.680;2022-11-15T01:10:08;10.93;;;5.10;;
70067;SDS011;57425;51.616;6.680;2022-11-15T01:12:34;11.73;;;5.43;;
70067;SDS011;57425;51.616;6.680;2022-11-15T01:14:59;11.10;;;5.50;;
70067;SDS011;57425;51.616;6.680;2022-11-15T01:17:25;16.50;;;4.87;;
70067;SDS011;57425;51.616;6.680;2022-11-15T01:19:51;9.27;;;4.90;;
70067;SDS011;57425;51.616;6.680;2022-11-15T01:22:17;12.87;;;4.87;;
70067;SDS011;57425;51.616;6.680;2022-11-15T01:24:43;12.87;;;4.47;;
70067;SDS011;57425;51.616;6.680;2022-11-15T01:27:08;12.80;;;4.93;;
70067;SDS011;57425;51.616;6.680;2022-11-15T01:29:34;13.67;;;5.33;;
70067;SDS011;57425;51.616;6.680;2022-11-15T01:32:00;11.07;;;4.83;;
70067;SDS011;57425;51.616;6.680;2022-11-15T01:34:25;9.63;;;4.53;;
70067;SDS011;57425;51.616;6.680;2022-11-15T01:36:51;13.70;;;4.63;;
70067;SDS011;57425;51.616;6.680;2022-11-15T01:39:17;9.73;;;4.20;;
70067;SDS011;57425;51.616;6.680;2022-11-15T01:41:43;10.73;;;5.23;;
70067;SDS011;57425;51.616;6.680;2022-11-15T01:46:56;11.83;;;5.00;;
70067;SDS011;57425;51.616;6.680;2022-11-15T01:49:24;12.37;;;4.67;;
70067;SDS011;57425;51.616;6.680;2022-11-15T01:51:56;13.17;;;4.67;;
70067;SDS011;57425;51.616;6.680;2022-11-15T01:54:23;14.83;;;5.03;;
70067;SDS011;57425;51.616;6.680;2022-11-15T01:56:55;17.30;;;4.90;;
70067;SDS011;57425;51.616;6.680;2022-11-15T01:59:25;7.77;;;4.70;;
70067;SDS011;57425;51.616;6.680;2022-11-15T02:01:51;12.27;;;4.33;;
70067;SDS011;57425;51.616;6.680;2022-11-15T02:04:21;10.23;;;4.50;;
70067;SDS011;57425;51.616;6.680;2022-11-15T02:06:50;14.95;;;4.85;;
70067;SDS011;57425;51.616;6.680;2022-11-15T02:09:16;12.60;;;5.53;;
70067;SDS011;57425;51.616;6.680;2022-11-15T02:11:42;16.83;;;5.33;;
70067;SDS011;57425;51.616;6.680;2022-11-15T02:14:10;9.70;;;4.50;;
70067;SDS011;57425;51.616;6.680;2022-11-15T02:16:44;8.17;;;5.20;;
70067;SDS011;57425;51.616;6.680;2022-11-15T02:19:36;9.68;;;3.90;;
70067;SDS011;57425;51.616;6.680;2022-11-15T02:36:25;10.00;;;3.73;;
70067;SDS011;57425;51.616;6.680;2022-11-15T02:41:57;9.68;;;3.65;;
70067;SDS011;57425;51.616;6.680;2022-11-15T02:44:32;18.10;;;4.70;;
70067;SDS011;57425;51.616;6.680;2022-11-15T02:47:06;9.30;;;4.93;;
70067;SDS011;57425;51.616;6.680;2022-11-15T02:49:39;9.23;;;4.80;;
70067;SDS011;57425;51.616;6.680;2022-11-15T02:52:16;15.37;;;4.43;;
70067;SDS011;57425;51.616;6.680;2022-11-15T02:54:43;8.63;;;4.60;;
70067;SDS011;57425;51.616;6.680;2022-11-15T03:00:31;9.77;;;3.97;;
70067;SDS011;57425;51.616;6.680;2022-11-15T03:03:12;12.23;;;4.50;;
70067;SDS011;57425;51.616;6.680;2022-11-15T03:05:46;15.07;;;4.47;;
70067;SDS011;57425;51.616;6.680;2022-11-15T03:13:55;10.40;;;4.57;;
70067;SDS011;57425;51.616;6.680;2022-11-15T03:21:59;11.07;;;4.70;;
70067;SDS011;57425;51.616;6.680;2022-11-15T03:24:28;12.13;;;4.77;;
70067;SDS011;57425;51.616;6.680;2022-11-15T03:26:58;11.33;;;4.10;;
70067;SDS011;57425;51.616;6.680;2022-11-15T03:29:27;7.73;;;4.00;;
70067;SDS011;57425;51.616;6.680;2022-11-15T03:31:58;10.40;;;3.83;;
70067;SDS011;57425;51.616;6.680;2022-11-15T03:34:50;6.77;;;4.50;;
70067;SDS011;57425;51.616;6.680;2022-11-15T03:37:34;6.73;;;4.23;;
70067;SDS011;57425;51.616;6.680;2022-11-15T03:40:16;8.33;;;4.30;;
70067;SDS011;57425;51.616;6.680;2022-11-15T03:45:21;6.63;;;4.03;;
70067;SDS011;57425;51.616;6.680;2022-11-15T03:47:53;11.97;;;4.40;;
70067;SDS011;57425;51.616;6.680;2022-11-15T03:50:25;10.17;;;3.90;;
70067;SDS011;57425;51.616;6.680;2022-11-15T03:52:51;9.00;;;4.10;;
70067;SDS011;57425;51.616;6.680;2022-11-15T03:55:20;8.00;;;4.07;;
70067;SDS011;57425;51.616;6.680;2022-11-15T03:57:50;18.80;;;4.50;;
70067;SDS011;57425;51.616;6.680;2022-11-15T04:00:18;7.60;;;4.20;;
70067;SDS011;57425;51.616;6.680;2022-11-15T04:02:44;13.07;;;4.33;;
70067;SDS011;57425;51.616;6.680;2022-11-15T04:05:11;10.33;;;4.90;;
70067;SDS011;57425;51.616;6.680;2022-11-15T04:07:36;16.60;;;4.77;;
70067;SDS011;57425;51.616;6.680;2022-11-15T04:10:02;10.47;;;4.57;;
70067;SDS011;57425;51.616;6.680;2022-11-15T04:12:38;14.27;;;4.90;;
70067;SDS011;57425;51.616;6.680;2022-11-15T04:20:10;9.07;;;3.97;;
70067;SDS011;57425;51.616;6.680;2022-11-15T04:23:00;10.13;;;5.17;;
70067;SDS011;57425;51.616;6.680;2022-11-15T04:25:47;14.17;;;4.50;;
70067;SDS011;57425;51.616;6.680;2022-11-15T04:28:15;9.33;;;5.20;;
70067;SDS011;57425;51.616;6.680;2022-11-15T04:30:41;17.53;;;5.00;;
70067;SDS011;57425;51.616;6.680;2022-11-15T04:33:07;14.97;;;5.83;;
70067;SDS011;57425;51.616;6.680;2022-11-15T04:35:33;16.07;;;5.17;;
70067;SDS011;57425;51.616;6.680;2022-11-15T04:37:58;12.23;;;4.70;;
70067;SDS011;57425;51.616;6.680;2022-11-15T04:40:25;11.90;;;5.87;;
70067;SDS011;57425;51.616;6.680;2022-11-15T04:42:50;7.20;;;4.63;;
70067;SDS011;57425;51.616;6.680;2022-11-15T04:45:16;10.13;;;4.13;;
70067;SDS011;57425;51.616;6.680;2022-11-15T04:47:45;13.47;;;5.17;;
70067;SDS011;57425;51.616;6.680;2022-11-15T04:50:12;14.30;;;5.03;;
70067;SDS011;57425;51.616;6.680;2022-11-15T04:52:41;10.93;;;4.63;;
70067;SDS011;57425;51.616;6.680;2022-11-15T04:55:09;12.07;;;5.37;;
70067;SDS011;57425;51.616;6.680;2022-11-15T04:57:35;7.67;;;4.43;;
70067;SDS011;57425;51.616;6.680;2022-11-15T05:00:06;8.27;;;4.37;;
70067;SDS011;57425;51.616;6.680;2022-11-15T05:02:33;18.23;;;4.87;;
70067;SDS011;57425;51.616;6.680;2022-11-15T05:05:18;8.90;;;4.97;;
70067;SDS011;57425;51.616;6.680;2022-11-15T05:07:44;10.47;;;4.73;;
70067;SDS011;57425;51.616;6.680;2022-11-15T05:10:10;10.47;;;4.90;;
70067;SDS011;57425;51.616;6.680;2022-11-15T05:12:36;13.53;;;5.23;;
70067;SDS011;57425;51.616;6.680;2022-11-15T05:15:03;12.30;;;4.67;;
70067;SDS011;57425;51.616;6.680;2022-11-15T05:17:29;8.40;;;3.90;;
70067;SDS011;57425;51.616;6.680;2022-11-15T05:19:55;9.03;;;4.97;;
70067;SDS011;57425;51.616;6.680;2022-11-15T05:22:21;12.97;;;4.87;;
70067;SDS011;57425;51.616;6.680;2022-11-15T05:24:46;13.97;;;4.57;;
70067;SDS011;57425;51.616;6.680;2022-11-15T05:27:12;16.43;;;4.77;;
70067;SDS011;57425;51.616;6.680;2022-11-15T05:29:37;9.37;;;4.67;;
70067;SDS011;57425;51.616;6.680;2022-11-15T05:32:04;7.00;;;4.03;;
70067;SDS011;57425;51.616;6.680;2022-11-15T05:34:31;8.40;;;4.37;;
70067;SDS011;57425;51.616;6.680;2022-11-15T05:36:57;9.67;;;4.70;;
70067;SDS011;57425;51.616;6.680;2022-11-15T05:39:24;12.23;;;4.27;;
70067;SDS011;57425;51.616;6.680;2022-11-15T05:41:59;13.67;;;4.27;;
70067;SDS011;57425;51.616;6.680;2022-11-15T05:44:32;16.33;;;4.33;;
70067;SDS011;57425;51.616;6.680;2022-11-15T05:46:59;7.57;;;4.17;;
70067;SDS011;57425;51.616;6.680;2022-11-15T05:49:26;15.40;;;5.23;;
70067;SDS011;57425;51.616;6.680;2022-11-15T05:51:56;11.50;;;4.37;;
70067;SDS011;57425;51.616;6.680;2022-11-15T05:54:22;10.73;;;3.83;;
70067;SDS011;57425;51.616;6.680;2022-11-15T05:56:49;9.00;;;4.33;;
70067;SDS011;57425;51.616;6.680;2022-11-15T05:59:16;8.43;;;4.20;;
70067;SDS011;57425;51.616;6.680;2022-11-15T06:01:42;12.77;;;4.30;;
70067;SDS011;57425;51.616;6.680;2022-11-15T06:04:08;9.70;;;4.43;;
70067;SDS011;57425;51.616;6.680;2022-11-15T06:06:34;8.60;;;4.60;;
70067;SDS011;57425;51.616;6.680;2022-11-15T06:09:00;9.73;;;3.53;;
70067;SDS011;57425;51.616;6.680;2022-11-15T06:11:25;7.97;;;3.70;;
70067;SDS011;57425;51.616;6.680;2022-11-15T06:13:51;8.83;;;4.57;;
70067;SDS011;57425;51.616;6.680;2022-11-15T06:16:16;8.07;;;4.37;;
70067;SDS011;57425;51.616;6.680;2022-11-15T06:18:42;13.97;;;4.17;;
70067;SDS011;57425;51.616;6.680;2022-11-15T06:21:08;6.30;;;3.43;;
70067;SDS011;57425;51.616;6.680;2022-11-15T06:23:34;9.37;;;4.70;;
70067;SDS011;57425;51.616;6.680;2022-11-15T06:26:01;13.10;;;4.10;;
70067;SDS011;57425;51.616;6.680;2022-11-15T06:28:28;12.97;;;4.20;;
70067;SDS011;57425;51.616;6.680;2022-11-15T06:31:07;11.87;;;4.60;;
70067;SDS011;57425;51.616;6.680;2022-11-15T06:33:34;7.20;;;3.87;;
70067;SDS011;57425;51.616;6.680;2022-11-15T06:36:01;14.17;;;4.60;;
70067;SDS011;57425;51.616;6.680;2022-11-15T06:38:31;13.50;;;4.63;;
70067;SDS011;57425;51.616;6.680;2022-11-15T06:41:04;14.00;;;5.63;;
70067;SDS011;57425;51.616;6.680;2022-11-15T06:43:31;10.87;;;4.57;;
70067;SDS011;57425;51.616;6.680;2022-11-15T06:45:58;8.73;;;4.53;;
70067;SDS011;57425;51.616;6.680;2022-11-15T06:48:24;12.30;;;5.33;;
70067;SDS011;57425;51.616;6.680;2022-11-15T06:50:51;9.73;;;4.60;;
70067;SDS011;57425;51.616;6.680;2022-11-15T06:53:17;7.93;;;4.03;;
70067;SDS011;57425;51.616;6.680;2022-11-15T06:55:43;6.67;;;2.87;;
70067;SDS011;57425;51.616;6.680;2022-11-15T06:58:08;10.27;;;4.10;;
70067;SDS011;57425;51.616;6.680;2022-11-15T07:00:34;10.63;;;4.10;;
70067;SDS011;57425;51.616;6.680;2022-11-15T07:03:00;8.73;;;3.83;;
70067;SDS011;57425;51.616;6.680;2022-11-15T07:05:26;15.53;;;3.93;;
70067;SDS011;57425;51.616;6.680;2022-11-15T07:07:55;9.17;;;3.60;;
70067;SDS011;57425;51.616;6.680;2022-11-15T07:10:22;7.87;;;3.27;;
70067;SDS011;57425;51.616;6.680;2022-11-15T07:12:50;6.97;;;3.53;;
70067;SDS011;57425;51.616;6.680;2022-11-15T07:15:19;11.80;;;3.70;;
70067;SDS011;57425;51.616;6.680;2022-11-15T07:17:46;7.33;;;3.40;;
70067;SDS011;57425;51.616;6.680;2022-11-15T07:20:11;17.70;;;3.40;;
70067;SDS011;57425;51.616;6.680;2022-11-15T07:22:41;4.13;;;2.13;;
70067;SDS011;57425;51.616;6.680;2022-11-15T07:25:07;9.83;;;3.20;;
70067;SDS011;57425;51.616;6.680;2022-11-15T07:27:33;10.03;;;3.57;;
70067;SDS011;57425;51.616;6.680;2022-11-15T07:29:59;7.63;;;3.77;;
70067;SDS011;57425;51.616;6.680;2022-11-15T07:32:25;7.97;;;3.90;;
70067;SDS011;57425;51.616;6.680;2022-11-15T07:34:51;6.67;;;3.20;;
70067;SDS011;57425;51.616;6.680;2022-11-15T07:37:16;12.33;;;3.23;;
70067;SDS011;57425;51.616;6.680;2022-11-15T07:39:42;7.73;;;3.33;;
70067;SDS011;57425;51.616;6.680;2022-11-15T07:42:08;6.73;;;2.47;;
70067;SDS011;57425;51.616;6.680;2022-11-15T07:44:53;7.17;;;2.27;;
70067;SDS011;57425;51.616;6.680;2022-11-15T07:47:18;4.70;;;2.23;;
70067;SDS011;57425;51.616;6.680;2022-11-15T07:49:45;6.20;;;2.30;;
70067;SDS011;57425;51.616;6.680;2022-11-15T07:52:12;4.70;;;2.33;;
70067;SDS011;57425;51.616;6.680;2022-11-15T07:54:38;5.33;;;2.00;;
70067;SDS011;57425;51.616;6.680;2022-11-15T07:57:05;4.10;;;2.10;;
70067;SDS011;57425;51.616;6.680;2022-11-15T07:59:32;7.33;;;2.00;;
70067;SDS011;57425;51.616;6.680;2022-11-15T08:01:59;2.97;;;1.63;;
70067;SDS011;57425;51.616;6.680;2022-11-15T08:04:25;4.50;;;1.63;;
70067;SDS011;57425;51.616;6.680;2022-11-15T08:06:51;4.40;;;2.37;;
70067;SDS011;57425;51.616;6.680;2022-11-15T08:09:16;2.60;;;1.87;;
70067;SDS011;57425;51.616;6.680;2022-11-15T08:11:42;4.70;;;2.33;;
70067;SDS011;57425;51.616;6.680;2022-11-15T08:14:07;3.20;;;1.83;;
70067;SDS011;57425;51.616;6.680;2022-11-15T08:16:33;3.47;;;1.73;;
70067;SDS011;57425;51.616;6.680;2022-11-15T08:18:59;2.63;;;1.70;;
70067;SDS011;57425;51.616;6.680;2022-11-15T08:21:25;3.93;;;1.50;;
70067;SDS011;57425;51.616;6.680;2022-11-15T08:23:50;3.90;;;1.13;;
70067;SDS011;57425;51.616;6.680;2022-11-15T08:26:16;2.80;;;1.43;;
70067;SDS011;57425;51.616;6.680;2022-11-15T08:28:43;3.43;;;1.50;;
70067;SDS011;57425;51.616;6.680;2022-11-15T08:31:12;3.93;;;1.20;;
70067;SDS011;57425;51.616;6.680;2022-11-15T08:33:41;3.07;;;1.37;;
70067;SDS011;57425;51.616;6.680;2022-11-15T08:36:10;4.23;;;1.37;;
70067;SDS011;57425;51.616;6.680;2022-11-15T08:38:41;3.20;;;1.40;;
70067;SDS011;57425;51.616;6.680;2022-11-15T08:41:06;2.20;;;1.30;;
70067;SDS011;57425;51.616;6.680;2022-11-15T08:43:35;1.80;;;1.07;;
70067;SDS011;57425;51.616;6.680;2022-11-15T08:46:01;2.13;;;1.20;;
70067;SDS011;57425;51.616;6.680;2022-11-15T08:48:27;2.77;;;1.40;;
70067;SDS011;57425;51.616;6.680;2022-11-15T08:50:55;3.90;;;0.90;;
70067;SDS011;57425;51.616;6.680;2022-11-15T08:53:21;6.23;;;1.40;;
70067;SDS011;57425;51.616;6.680;2022-11-15T08:55:47;2.27;;;1.20;;
70067;SDS011;57425;51.616;6.680;2022-11-15T08:58:13;5.73;;;1.10;;
70067;SDS011;57425;51.616;6.680;2022-11-15T09:00:38;3.77;;;1.03;;
70067;SDS011;57425;51.616;6.680;2022-11-15T09:03:05;6.47;;;1.30;;
70067;SDS011;57425;51.616;6.680;2022-11-15T09:05:31;5.50;;;1.40;;
70067;SDS011;57425;51.616;6.680;2022-11-15T09:07:57;2.20;;;1.20;;
70067;SDS011;57425;51.616;6.680;2022-11-15T09:10:22;1.70;;;1.13;;
70067;SDS011;57425;51.616;6.680;2022-11-15T09:12:49;3.97;;;0.93;;
70067;SDS011;57425;51.616;6.680;2022-11-15T09:15:15;1.70;;;0.97;;
70067;SDS011;57425;51.616;6.680;2022-11-15T09:17:41;4.40;;;1.70;;
70067;SDS011;57425;51.616;6.680;2022-11-15T09:20:08;2.20;;;1.33;;
70067;SDS011;57425;51.616;6.680;2022-11-15T09:22:34;8.27;;;2.93;;
70067;SDS011;57425;51.616;6.680;2022-11-15T09:25:01;7.17;;;2.07;;
70067;SDS011;57425;51.616;6.680;2022-11-15T09:27:30;7.00;;;3.10;;
70067;SDS011;57425;51.616;6.680;2022-11-15T09:29:56;3.17;;;1.67;;
70067;SDS011;57425;51.616;6.680;2022-11-15T09:32:22;3.00;;;1.70;;
70067;SDS011;57425;51.616;6.680;2022-11-15T09:34:48;3.17;;;1.50;;
70067;SDS011;57425;51.616;6.680;2022-11-15T09:37:14;6.73;;;1.93;;
70067;SDS011;57425;51.616;6.680;2022-11-15T09:39:40;10.07;;;2.40;;
70067;SDS011;57425;51.616;6.680;2022-11-15T09:44:59;2.37;;;1.30;;
70067;SDS011;57425;51.616;6.680;2022-11-15T09:50:51;2.83;;;1.63;;
70067;SDS011;57425;51.616;6.680;2022-11-15T09:56:02;2.90;;;1.20;;
70067;SDS011;57425;51.616;6.680;2022-11-15T09:58:39;3.72;;;1.05;;
70067;SDS011;57425;51.616;6.680;2022-11-15T10:01:33;1.40;;;1.00;;
70067;SDS011;57425;51.616;6.680;2022-11-15T10:04:10;3.70;;;1.23;;
70067;SDS011;57425;51.616;6.680;2022-11-15T10:06:38;3.13;;;1.07;;
70067;SDS011;57425;51.616;6.680;2022-11-15T10:09:25;2.90;;;1.93;;
70067;SDS011;57425;51.616;6.680;2022-11-15T10:11:59;3.23;;;1.70;;
70067;SDS011;57425;51.616;6.680;2022-11-15T10:14:25;8.53;;;1.30;;
70067;SDS011;57425;51.616;6.680;2022-11-15T10:22:28;7.63;;;5.97;;
70067;SDS011;57425;51.616;6.680;2022-11-15T10:25:09;6.43;;;2.43;;
70067;SDS011;57425;51.616;6.680;2022-11-15T10:30:45;4.17;;;3.70;;
70067;SDS011;57425;51.616;6.680;2022-11-15T10:36:13;3.60;;;2.77;;
70067;SDS011;57425;51.616;6.680;2022-11-15T10:44:07;6.37;;;2.60;;
70067;SDS011;57425;51.616;6.680;2022-11-15T10:46:36;3.43;;;2.10;;
70067;SDS011;57425;51.616;6.680;2022-11-15T10:49:17;8.40;;;2.97;;
70067;SDS011;57425;51.616;6.680;2022-11-15T10:51:47;7.72;;;3.42;;
70067;SDS011;57425;51.616;6.680;2022-11-15T10:54:18;5.87;;;2.83;;
70067;SDS011;57425;51.616;6.680;2022-11-15T10:57:06;4.03;;;1.40;;
70067;SDS011;57425;51.616;6.680;2022-11-15T10:59:35;4.03;;;1.90;;
70067;SDS011;57425;51.616;6.680;2022-11-15T11:02:02;3.53;;;1.50;;
70067;SDS011;57425;51.616;6.680;2022-11-15T11:04:54;7.13;;;1.97;;
70067;SDS011;57425;51.616;6.680;2022-11-15T11:07:20;2.63;;;1.40;;
70067;SDS011;57425;51.616;6.680;2022-11-15T11:10:34;15.17;;;2.10;;
70067;SDS011;57425;51.616;6.680;2022-11-15T11:12:45;3.47;;;1.80;;
70067;SDS011;57425;51.616;6.680;2022-11-15T11:15:12;3.03;;;1.30;;
70067;SDS011;57425;51.616;6.680;2022-11-15T11:17:44;4.80;;;1.50;;
70067;SDS011;57425;51.616;6.680;2022-11-15T11:20:40;4.87;;;2.90;;
70067;SDS011;57425;51.616;6.680;2022-11-15T11:31:46;2.07;;;1.27;;
70067;SDS011;57425;51.616;6.680;2022-11-15T11:34:32;27.73;;;13.33;;
70067;SDS011;57425;51.616;6.680;2022-11-15T11:37:12;3.77;;;1.53;;
70067;SDS011;57425;51.616;6.680;2022-11-15T11:48:04;3.60;;;2.20;;
70067;SDS011;57425;51.616;6.680;2022-11-15T11:50:40;6.80;;;2.20;;
70067;SDS011;57425;51.616;6.680;2022-11-15T11:55:52;0.87;;;0.80;;
70067;SDS011;57425;51.616;6.680;2022-11-15T11:58:26;13.77;;;1.73;;
70067;SDS011;57425;51.616;6.680;2022-11-15T12:01:10;5.35;;;2.10;;
70067;SDS011;57425;51.616;6.680;2022-11-15T12:17:11;6.27;;;1.47;;
70067;SDS011;57425;51.616;6.680;2022-11-15T12:19:37;1.37;;;1.00;;
70067;SDS011;57425;51.616;6.680;2022-11-15T12:22:05;3.13;;;1.20;;
70067;SDS011;57425;51.616;6.680;2022-11-15T12:24:58;2.33;;;1.07;;
70067;SDS011;57425;51.616;6.680;2022-11-15T12:27:46;4.57;;;1.20;;
70067;SDS011;57425;51.616;6.680;2022-11-15T12:30:21;3.67;;;2.03;;
70067;SDS011;57425;51.616;6.680;2022-11-15T12:32:52;8.77;;;1.50;;
70067;SDS011;57425;51.616;6.680;2022-11-15T12:35:24;3.37;;;1.50;;
70067;SDS011;57425;51.616;6.680;2022-11-15T12:38:49;1.75;;;1.02;;
70067;SDS011;57425;51.616;6.680;2022-11-15T12:41:22;8.40;;;1.30;;
70067;SDS011;57425;51.616;6.680;2022-11-15T12:43:55;3.07;;;0.97;;
70067;SDS011;57425;51.616;6.680;2022-11-15T12:46:22;2.73;;;1.50;;
70067;SDS011;57425;51.616;6.680;2022-11-15T12:52:05;6.63;;;1.60;;
70067;SDS011;57425;51.616;6.680;2022-11-15T13:22:41;4.80;;;0.87;;
70067;SDS011;57425;51.616;6.680;2022-11-15T13:33:16;4.73;;;0.80;;
70067;SDS011;57425;51.616;6.680;2022-11-15T13:35:54;3.07;;;1.10;;
70067;SDS011;57425;51.616;6.680;2022-11-15T13:40:52;3.50;;;0.83;;
70067;SDS011;57425;51.616;6.680;2022-11-15T13:46:03;5.83;;;1.03;;
70067;SDS011;57425;51.616;6.680;2022-11-15T13:48:35;1.90;;;0.80;;
70067;SDS011;57425;51.616;6.680;2022-11-15T13:51:05;1.90;;;0.50;;
70067;SDS011;57425;51.616;6.680;2022-11-15T13:53:35;1.60;;;0.60;;
70067;SDS011;57425;51.616;6.680;2022-11-15T13:56:05;5.13;;;0.77;;
70067;SDS011;57425;51.616;6.680;2022-11-15T13:58:31;3.17;;;0.80;;
70067;SDS011;57425;51.616;6.680;2022-11-15T14:01:01;5.83;;;0.97;;
70067;SDS011;57425;51.616;6.680;2022-11-15T14:03:32;1.93;;;0.80;;
70067;SDS011;57425;51.616;6.680;2022-11-15T14:08:37;9.63;;;0.90;;
70067;SDS011;57425;51.616;6.680;2022-11-15T14:13:38;4.00;;;0.50;;
70067;SDS011;57425;51.616;6.680;2022-11-15T14:16:14;5.90;;;0.67;;
70067;SDS011;57425;51.616;6.680;2022-11-15T14:18:46;8.13;;;1.23;;
70067;SDS011;57425;51.616;6.680;2022-11-15T14:21:14;2.13;;;0.50;;
70067;SDS011;57425;51.616;6.680;2022-11-15T14:23:41;1.23;;;0.70;;
70067;SDS011;57425;51.616;6.680;2022-11-15T14:26:10;1.03;;;0.60;;
70067;SDS011;57425;51.616;6.680;2022-11-15T14:28:57;1.20;;;0.63;;
70067;SDS011;57425;51.616;6.680;2022-11-15T14:31:42;1.10;;;0.40;;
70067;SDS011;57425;51.616;6.680;2022-11-15T14:34:11;3.00;;;0.60;;
70067;SDS011;57425;51.616;6.680;2022-11-15T14:36:36;1.03;;;0.63;;
70067;SDS011;57425;51.616;6.680;2022-11-15T14:39:02;3.23;;;0.87;;
70067;SDS011;57425;51.616;6.680;2022-11-15T14:41:33;1.50;;;0.50;;
70067;SDS011;57425;51.616;6.680;2022-11-15T14:44:03;7.63;;;0.83;;
70067;SDS011;57425;51.616;6.680;2022-11-15T14:46:29;14.87;;;1.40;;
70067;SDS011;57425;51.616;6.680;2022-11-15T14:48:55;2.03;;;0.77;;
70067;SDS011;57425;51.616;6.680;2022-11-15T14:51:21;2.00;;;0.90;;
70067;SDS011;57425;51.616;6.680;2022-11-15T14:53:47;4.63;;;1.00;;
70067;SDS011;57425;51.616;6.680;2022-11-15T14:56:13;1.80;;;0.77;;
70067;SDS011;57425;51.616;6.680;2022-11-15T14:58:40;4.97;;;0.70;;
70067;SDS011;57425;51.616;6.680;2022-11-15T15:01:12;4.60;;;1.10;;
70067;SDS011;57425;51.616;6.680;2022-11-15T15:03:41;4.80;;;1.60;;
70067;SDS011;57425;51.616;6.680;2022-11-15T15:06:09;3.53;;;0.77;;
70067;SDS011;57425;51.616;6.680;2022-11-15T15:08:34;7.63;;;1.03;;
70067;SDS011;57425;51.616;6.680;2022-11-15T15:11:00;0.87;;;0.50;;
70067;SDS011;57425;51.616;6.680;2022-11-15T15:13:26;3.83;;;0.90;;
70067;SDS011;57425;51.616;6.680;2022-11-15T15:15:53;8.17;;;0.73;;
70067;SDS011;57425;51.616;6.680;2022-11-15T15:18:19;1.57;;;0.73;;
70067;SDS011;57425;51.616;6.680;2022-11-15T15:20:45;4.47;;;1.17;;
70067;SDS011;57425;51.616;6.680;2022-11-15T15:23:19;3.08;;;1.20;;
70067;SDS011;57425;51.616;6.680;2022-11-15T15:25:45;2.37;;;0.80;;
70067;SDS011;57425;51.616;6.680;2022-11-15T15:28:13;4.37;;;1.17;;
70067;SDS011;57425;51.616;6.680;2022-11-15T15:30:39;3.17;;;0.70;;
70067;SDS011;57425;51.616;6.680;2022-11-15T15:33:05;2.57;;;1.07;;
70067;SDS011;57425;51.616;6.680;2022-11-15T15:35:32;1.67;;;0.90;;
70067;SDS011;57425;51.616;6.680;2022-11-15T15:37:59;1.73;;;0.77;;
70067;SDS011;57425;51.616;6.680;2022-11-15T15:40:25;1.47;;;1.00;;
70067;SDS011;57425;51.616;6.680;2022-11-15T15:42:54;2.53;;;0.97;;
70067;SDS011;57425;51.616;6.680;2022-11-15T15:45:19;5.37;;;1.40;;
70067;SDS011;57425;51.616;6.680;2022-11-15T15:47:45;3.80;;;1.10;;
70067;SDS011;57425;51.616;6.680;2022-11-15T15:50:14;4.10;;;1.27;;
70067;SDS011;57425;51.616;6.680;2022-11-15T15:52:49;1.53;;;0.97;;
70067;SDS011;57425;51.616;6.680;2022-11-15T15:55:15;8.63;;;2.30;;
70067;SDS011;57425;51.616;6.680;2022-11-15T15:57:41;3.07;;;1.17;;
70067;SDS011;57425;51.616;6.680;2022-11-15T16:00:08;4.33;;;0.87;;
70067;SDS011;57425;51.616;6.680;2022-11-15T16:02:34;2.10;;;1.30;;
70067;SDS011;57425;51.616;6.680;2022-11-15T16:05:00;2.20;;;0.97;;
70067;SDS011;57425;51.616;6.680;2022-11-15T16:07:26;7.23;;;1.33;;
70067;SDS011;57425;51.616;6.680;2022-11-15T16:09:54;6.23;;;1.70;;
70067;SDS011;57425;51.616;6.680;2022-11-15T16:12:27;3.20;;;1.40;;
70067;SDS011;57425;51.616;6.680;2022-11-15T16:14:53;4.80;;;1.40;;
70067;SDS011;57425;51.616;6.680;2022-11-15T16:17:20;2.70;;;1.53;;
70067;SDS011;57425;51.616;6.680;2022-11-15T16:19:47;5.10;;;1.60;;
70067;SDS011;57425;51.616;6.680;2022-11-15T16:22:13;4.40;;;1.40;;
70067;SDS011;57425;51.616;6.680;2022-11-15T16:24:39;3.03;;;1.20;;
70067;SDS011;57425;51.616;6.680;2022-11-15T16:27:04;5.73;;;1.67;;
70067;SDS011;57425;51.616;6.680;2022-11-15T16:29:30;3.60;;;1.60;;
70067;SDS011;57425;51.616;6.680;2022-11-15T16:31:55;7.00;;;1.43;;
70067;SDS011;57425;51.616;6.680;2022-11-15T16:34:21;2.60;;;1.43;;
70067;SDS011;57425;51.616;6.680;2022-11-15T16:36:47;4.63;;;1.50;;
70067;SDS011;57425;51.616;6.680;2022-11-15T16:39:13;4.03;;;1.30;;
70067;SDS011;57425;51.616;6.680;2022-11-15T16:41:40;3.53;;;1.60;;
70067;SDS011;57425;51.616;6.680;2022-11-15T16:44:08;1.03;;;0.93;;
70067;SDS011;57425;51.616;6.680;2022-11-15T16:46:33;2.70;;;1.20;;
70067;SDS011;57425;51.616;6.680;2022-11-15T16:49:01;7.80;;;1.40;;
70067;SDS011;57425;51.616;6.680;2022-11-15T16:51:27;2.60;;;1.23;;
70067;SDS011;57425;51.616;6.680;2022-11-15T16:53:53;3.57;;;1.00;;
70067;SDS011;57425;51.616;6.680;2022-11-15T16:56:28;3.43;;;1.10;;
70067;SDS011;57425;51.616;6.680;2022-11-15T16:58:55;3.20;;;1.20;;
70067;SDS011;57425;51.616;6.680;2022-11-15T17:01:32;1.10;;;1.00;;
70067;SDS011;57425;51.616;6.680;2022-11-15T17:03:59;5.17;;;1.50;;
70067;SDS011;57425;51.616;6.680;2022-11-15T17:06:40;7.37;;;1.30;;
70067;SDS011;57425;51.616;6.680;2022-11-15T17:09:11;2.87;;;1.37;;
70067;SDS011;57425;51.616;6.680;2022-11-15T17:11:42;1.10;;;0.80;;
70067;SDS011;57425;51.616;6.680;2022-11-15T17:14:08;4.83;;;0.90;;
70067;SDS011;57425;51.616;6.680;2022-11-15T17:16:35;3.03;;;1.57;;
70067;SDS011;57425;51.616;6.680;2022-11-15T17:19:02;5.83;;;1.73;;
70067;SDS011;57425;51.616;6.680;2022-11-15T17:21:28;5.63;;;1.40;;
70067;SDS011;57425;51.616;6.680;2022-11-15T17:23:54;2.07;;;1.23;;
70067;SDS011;57425;51.616;6.680;2022-11-15T17:26:20;3.37;;;1.27;;